Time;durP1;ratioP1;P1;durP2;ratioP2;P2;SDS_P1;SDS_P2;PMS_P1;PMS_P2;Temp;Humidity;BMP_temperature;BMP_pressure;BME280_temperature;BME280_humidity;BME280_pressure;Samples;Min_cycle;Max_cycle;Signal;HPM_P1;HPM_P2
2023/04/30 00:00:12;;;;;;;10.52;6.70;;;;;;;10.02;100.00;102217.47;5033175;28;20349;-62
2023/04/30 00:02:40;;;;;;;13.77;6.55;;;;;;;10.07;100.00;102219.50;5049747;28;20053;-61
2023/04/30 00:05:08;;;;;;;11.18;6.55;;;;;;;10.14;100.00;102220.22;5049119;28;20041;-63
2023/04/30 00:07:36;;;;;;;13.35;6.80;;;;;;;10.13;100.00;102218.59;5032854;28;20073;-62
2023/04/30 00:10:04;;;;;;;12.10;6.22;;;;;;;10.08;100.00;102215.69;5032693;28;20060;-62
2023/04/30 00:12:32;;;;;;;11.30;6.40;;;;;;;10.08;100.00;102213.81;5024448;28;20453;-63
2023/04/30 00:15:00;;;;;;;13.00;6.40;;;;;;;10.07;100.00;102214.88;5031650;28;20051;-64
2023/04/30 00:17:28;;;;;;;12.63;7.00;;;;;;;10.03;100.00;102210.97;5048274;28;20046;-64
2023/04/30 00:19:56;;;;;;;12.02;7.07;;;;;;;10.05;100.00;102217.00;5032075;28;20073;-62
2023/04/30 00:22:23;;;;;;;11.80;6.65;;;;;;;10.11;100.00;102216.09;5041912;28;20120;-62
2023/04/30 00:24:51;;;;;;;10.98;6.72;;;;;;;10.10;100.00;102219.88;5053518;28;20045;-62
2023/04/30 00:27:19;;;;;;;12.57;7.30;;;;;;;10.07;100.00;102214.88;5050613;28;20045;-62
2023/04/30 00:29:47;;;;;;;12.57;7.32;;;;;;;10.03;100.00;102219.13;5027623;28;20053;-62
2023/04/30 00:32:15;;;;;;;13.57;7.20;;;;;;;9.96;100.00;102221.13;5037092;28;20061;-63
2023/04/30 00:34:42;;;;;;;12.93;7.00;;;;;;;9.91;100.00;102227.25;5036685;28;20049;-63
2023/04/30 00:37:10;;;;;;;13.57;6.93;;;;;;;9.92;100.00;102226.16;5037057;28;20092;-63
2023/04/30 00:39:38;;;;;;;14.93;7.50;;;;;;;9.99;100.00;102218.75;5036520;28;20103;-62
2023/04/30 00:42:06;;;;;;;13.93;7.20;;;;;;;9.99;100.00;102223.38;5055314;28;20127;-63
2023/04/30 00:44:33;;;;;;;14.00;7.32;;;;;;;9.92;100.00;102217.19;5036605;28;20117;-63
2023/04/30 00:47:01;;;;;;;10.95;7.30;;;;;;;9.88;100.00;102221.41;5035096;28;20048;-63
2023/04/30 00:49:29;;;;;;;13.65;7.43;;;;;;;9.90;100.00;102222.03;5036441;28;20063;-63
2023/04/30 00:51:56;;;;;;;13.93;7.60;;;;;;;9.86;100.00;102224.38;5034866;28;20046;-64
2023/04/30 00:54:25;;;;;;;13.65;7.57;;;;;;;9.87;100.00;102225.22;5053394;28;20056;-61
2023/04/30 00:56:52;;;;;;;12.55;7.43;;;;;;;9.85;100.00;102228.16;5057790;28;20041;-62
2023/04/30 00:59:20;;;;;;;13.70;7.30;;;;;;;9.88;100.00;102215.97;5035375;28;20147;-61
2023/04/30 01:01:50;;;;;;;12.80;7.55;;;;;;;9.89;100.00;102217.66;5032389;28;20136;-63
2023/04/30 01:04:17;;;;;;;12.82;7.18;;;;;;;9.84;100.00;102221.06;5027144;28;20053;-62
2023/04/30 01:06:45;;;;;;;13.15;8.15;;;;;;;9.79;100.00;102221.72;5018360;28;20387;-62
2023/04/30 01:09:13;;;;;;;12.95;7.13;;;;;;;9.76;100.00;102214.00;5018193;28;20555;-61
2023/04/30 01:12:04;;;;;;;12.73;7.30;;;;;;;9.74;100.00;102213.44;5019720;28;20125;-61
2023/04/30 01:14:49;;;;;;;14.63;7.93;;;;;;;9.65;100.00;102228.41;5052861;28;20132;-62
2023/04/30 01:17:45;;;;;;;17.17;7.85;;;;;;;9.54;100.00;102220.97;5036093;28;20124;-61
2023/04/30 01:20:13;;;;;;;11.85;7.75;;;;;;;9.45;100.00;102220.44;5033058;28;20049;-62
2023/04/30 01:22:52;;;;;;;11.02;7.00;;;;;;;9.38;100.00;102217.81;5034417;28;20504;-65
2023/04/30 01:25:47;;;;;;;11.35;7.30;;;;;;;9.36;100.00;102214.47;5018869;28;20400;-61
2023/04/30 01:28:17;;;;;;;14.60;7.63;;;;;;;9.35;100.00;102215.50;5035359;28;20057;-61
2023/04/30 01:30:46;;;;;;;13.00;7.60;;;;;;;9.30;100.00;102226.25;5024247;28;20053;-62
2023/04/30 01:33:14;;;;;;;12.05;7.57;;;;;;;9.28;100.00;102219.38;5032516;28;20128;-62
2023/04/30 01:36:02;;;;;;;11.95;7.57;;;;;;;9.25;100.00;102223.38;5016225;28;20045;-62
2023/04/30 01:38:48;;;;;;;;;;;;;;;9.30;100.00;102219.97;5034379;28;20057;-62
2023/04/30 01:41:36;;;;;;;10.50;6.70;;;;;;;9.36;100.00;102221.81;5034275;28;19982;-63
2023/04/30 01:44:13;;;;;;;12.05;6.80;;;;;;;9.42;100.00;102217.34;5042007;28;20049;-62
2023/04/30 01:46:45;;;;;;;11.07;6.78;;;;;;;9.46;100.00;102219.41;5038432;28;20049;-62
2023/04/30 01:49:26;;;;;;;14.35;7.15;;;;;;;9.45;100.00;102222.31;5033876;28;20041;-63
2023/04/30 01:52:08;;;;;;;11.48;7.03;;;;;;;9.45;100.00;102222.31;5017722;28;20073;-62
2023/04/30 01:54:48;;;;;;;12.52;7.30;;;;;;;9.44;100.00;102223.41;5033917;28;20068;-61
2023/04/30 01:57:31;;;;;;;11.05;6.70;;;;;;;9.36;100.00;102222.63;5014246;28;20050;-61
2023/04/30 01:59:59;;;;;;;11.48;6.65;;;;;;;9.33;100.00;102236.69;5049645;28;20037;-62
2023/04/30 02:02:27;;;;;;;12.13;6.82;;;;;;;9.36;100.00;102221.81;5032819;28;20045;-62
2023/04/30 02:04:54;;;;;;;12.32;6.72;;;;;;;9.37;100.00;102226.19;5053614;28;20059;-62
2023/04/30 02:07:38;;;;;;;12.02;6.70;;;;;;;9.34;100.00;102215.75;5037182;28;20132;-62
2023/04/30 02:10:08;;;;;;;12.23;7.03;;;;;;;9.28;100.00;102217.47;5032719;28;20133;-63
2023/04/30 02:12:35;;;;;;;12.18;7.18;;;;;;;9.24;100.00;102221.72;5033833;28;20474;-61
2023/04/30 02:15:05;;;;;;;11.73;6.80;;;;;;;9.23;100.00;102219.22;5049703;28;20389;-64
2023/04/30 02:17:33;;;;;;;13.93;7.07;;;;;;;9.20;100.00;102225.94;5033683;28;20053;-64
2023/04/30 02:20:00;;;;;;;12.32;6.97;;;;;;;9.16;100.00;102222.84;5019162;28;20073;-61
2023/04/30 02:22:28;;;;;;;11.85;7.18;;;;;;;9.13;100.00;102225.16;5036996;28;20522;-62
2023/04/30 02:24:56;;;;;;;10.73;6.18;;;;;;;9.07;100.00;102220.63;5036579;28;20120;-61
2023/04/30 02:27:25;;;;;;;11.70;7.38;;;;;;;9.08;100.00;102222.28;5038569;28;20481;-62
2023/04/30 02:29:53;;;;;;;13.70;7.05;;;;;;;9.05;100.00;102217.31;5034058;28;20057;-62
2023/04/30 02:32:21;;;;;;;15.80;7.25;;;;;;;9.05;100.00;102222.75;5033331;28;20182;-61
2023/04/30 02:34:49;;;;;;;12.65;7.28;;;;;;;9.03;100.00;102222.97;5016777;28;20053;-61
2023/04/30 02:37:17;;;;;;;11.32;6.53;;;;;;;9.05;100.00;102217.31;5036697;28;20055;-62
2023/04/30 02:39:44;;;;;;;12.98;7.55;;;;;;;9.04;100.00;102215.63;5036972;28;20123;-62
2023/04/30 02:42:12;;;;;;;10.20;6.60;;;;;;;9.05;100.00;102225.47;5032927;28;20144;-62
2023/04/30 02:44:40;;;;;;;11.18;7.20;;;;;;;9.07;100.00;102221.47;5028552;28;20042;-63
2023/04/30 02:47:08;;;;;;;11.93;7.25;;;;;;;9.03;100.00;102219.41;5032859;28;20404;-62
2023/04/30 02:49:36;;;;;;;11.95;7.20;;;;;;;8.98;100.00;102213.81;5045601;28;20469;-62
2023/04/30 02:52:04;;;;;;;10.73;6.32;;;;;;;8.96;100.00;102214.03;5040477;28;20073;-63
2023/04/30 02:54:31;;;;;;;13.52;7.28;;;;;;;8.96;100.00;102214.84;5022505;28;20045;-62
2023/04/30 02:56:59;;;;;;;12.48;7.45;;;;;;;8.91;100.00;102217.41;5031368;28;20125;-61
2023/04/30 02:59:27;;;;;;;10.60;7.00;;;;;;;8.82;100.00;102221.47;5034386;28;20049;-61
2023/04/30 03:01:54;;;;;;;11.20;7.03;;;;;;;8.82;100.00;102216.03;5015983;28;20045;-61
2023/04/30 03:04:23;;;;;;;11.38;7.43;;;;;;;8.81;100.00;102211.66;5032728;28;20049;-61
2023/04/30 03:06:51;;;;;;;10.93;7.05;;;;;;;8.82;100.00;102216.03;5035158;28;20457;-62
2023/04/30 03:09:18;;;;;;;10.48;6.80;;;;;;;8.76;100.00;102211.50;5037573;28;20132;-62
2023/04/30 03:11:46;;;;;;;12.68;7.82;;;;;;;8.78;100.00;102216.69;5041264;28;20059;-61
2023/04/30 03:14:14;;;;;;;11.00;7.07;;;;;;;8.74;100.00;102216.31;5040938;28;20068;-62
2023/04/30 03:16:42;;;;;;;12.15;7.22;;;;;;;8.73;100.00;102220.06;5042083;28;20045;-63
2023/04/30 03:19:10;;;;;;;12.85;7.30;;;;;;;8.67;100.00;102215.53;5054812;28;20048;-61
2023/04/30 03:21:38;;;;;;;15.02;7.15;;;;;;;8.62;100.00;102223.53;5026496;28;20133;-61
2023/04/30 03:24:07;;;;;;;13.65;7.45;;;;;;;8.62;100.00;102226.22;5034003;28;20103;-61
2023/04/30 03:26:34;;;;;;;12.05;7.63;;;;;;;8.64;100.00;102215.97;5032670;28;20037;-62
2023/04/30 03:29:02;;;;;;;12.18;7.63;;;;;;;8.66;100.00;102214.72;5034874;28;20131;-61
2023/04/30 03:31:30;;;;;;;11.38;7.03;;;;;;;8.64;100.00;102222.25;5019139;28;20083;-61
2023/04/30 03:33:57;;;;;;;12.93;7.90;;;;;;;8.58;100.00;102223.09;5032260;28;20049;-62
2023/04/30 03:36:26;;;;;;;11.82;7.50;;;;;;;8.51;100.00;102220.47;5030470;28;20049;-61
2023/04/30 03:38:53;;;;;;;13.48;7.50;;;;;;;8.47;100.00;102230.09;5031973;28;20124;-61
2023/04/30 03:41:23;;;;;;;11.10;7.75;;;;;;;8.42;100.00;102227.22;5032066;28;20079;-64
2023/04/30 03:43:50;;;;;;;12.50;7.63;;;;;;;8.41;100.00;102227.41;5033248;28;20060;-63
2023/04/30 03:46:18;;;;;;;11.52;7.65;;;;;;;8.41;100.00;102227.41;5041614;28;20108;-62
2023/04/30 03:48:47;;;;;;;14.00;7.78;;;;;;;8.42;100.00;102232.63;5068997;28;20444;-62
2023/04/30 03:51:16;;;;;;;13.68;7.43;;;;;;;8.43;100.00;102231.56;5051979;28;20040;-62
2023/04/30 03:53:44;;;;;;;12.98;8.00;;;;;;;8.47;100.00;102232.81;5000065;28;20379;-63
2023/04/30 03:56:11;;;;;;;12.55;7.70;;;;;;;8.53;100.00;102231.91;5028459;28;20113;-60
2023/04/30 03:58:39;;;;;;;12.57;6.93;;;;;;;8.54;100.00;102232.78;5021692;28;20049;-61
2023/04/30 04:01:07;;;;;;;12.55;7.75;;;;;;;8.55;100.00;102222.72;5018042;28;20083;-60
2023/04/30 04:03:35;;;;;;;11.57;7.15;;;;;;;8.50;100.00;102229.66;5046182;28;20051;-63
2023/04/30 04:06:04;;;;;;;13.60;8.27;;;;;;;8.43;100.00;102219.88;5039307;28;20406;-61
2023/04/30 04:08:32;;;;;;;11.52;7.57;;;;;;;8.38;100.00;102228.66;5048467;28;20057;-62
2023/04/30 04:11:00;;;;;;;14.27;8.10;;;;;;;8.33;100.00;102223.06;5034913;28;20454;-64
2023/04/30 04:13:28;;;;;;;12.73;7.68;;;;;;;8.31;100.00;102231.41;5035492;28;20045;-62
2023/04/30 04:15:55;;;;;;;11.13;7.35;;;;;;;8.30;100.00;102227.03;5036651;28;20041;-61
2023/04/30 04:18:23;;;;;;;12.70;7.43;;;;;;;8.31;100.00;102222.44;5035298;28;20050;-62
2023/04/30 04:20:52;;;;;;;12.20;7.68;;;;;;;8.33;100.00;102226.59;5034477;28;20096;-61
2023/04/30 04:23:20;;;;;;;12.18;8.20;;;;;;;8.37;100.00;102226.16;5038708;28;20041;-61
2023/04/30 04:25:51;;;;;;;10.88;7.00;;;;;;;8.37;100.00;102229.72;5017055;28;20375;-63
2023/04/30 04:28:20;;;;;;;12.68;8.10;;;;;;;8.24;100.00;102233.31;5051179;28;20165;-61
2023/04/30 04:30:48;;;;;;;13.45;8.10;;;;;;;8.15;100.00;102233.78;5036552;28;20467;-61
2023/04/30 04:33:16;;;;;;;15.68;9.02;;;;;;;8.16;100.00;102230.06;5035283;28;20508;-61
2023/04/30 04:35:44;;;;;;;14.63;8.50;;;;;;;8.24;100.00;102232.50;5035463;28;20045;-63
2023/04/30 04:38:12;;;;;;;11.18;7.78;;;;;;;8.36;100.00;102235.34;5050962;28;20041;-61
2023/04/30 04:40:40;;;;;;;12.23;7.85;;;;;;;8.45;100.00;102232.19;5036512;28;20057;-60
2023/04/30 04:43:07;;;;;;;16.23;7.78;;;;;;;8.52;100.00;102232.97;5038981;28;20097;-63
2023/04/30 04:45:39;;;;;;;12.27;8.15;;;;;;;8.57;100.00;102236.94;5035812;28;20088;-62
2023/04/30 04:48:07;;;;;;;12.90;8.05;;;;;;;8.56;100.00;102240.69;5035833;28;20052;-61
2023/04/30 04:50:35;;;;;;;10.95;7.95;;;;;;;8.53;100.00;102234.63;5034711;28;20136;-62
2023/04/30 04:53:05;;;;;;;10.43;7.63;;;;;;;8.56;100.00;102236.06;5036460;28;20038;-62
2023/04/30 04:55:33;;;;;;;11.02;7.45;;;;;;;8.56;100.00;102243.41;5035107;28;20088;-61
2023/04/30 04:58:01;;;;;;;12.48;8.25;;;;;;;8.55;100.00;102239.03;5015348;28;20049;-61
2023/04/30 05:00:29;;;;;;;12.15;7.22;;;;;;;8.57;100.00;102239.66;4990214;28;20493;-61
2023/04/30 05:02:56;;;;;;;13.18;8.95;;;;;;;8.56;100.00;102246.13;5035317;28;20041;-63
2023/04/30 05:05:25;;;;;;;12.80;8.50;;;;;;;8.52;100.00;102246.56;5023140;28;20060;-61
2023/04/30 05:07:53;;;;;;;13.38;8.35;;;;;;;8.52;100.00;102248.44;5035224;28;20057;-61
2023/04/30 05:10:21;;;;;;;11.75;7.97;;;;;;;8.43;100.00;102250.59;5035027;28;20124;-63
2023/04/30 05:12:49;;;;;;;11.05;7.82;;;;;;;8.36;100.00;102249.75;5017980;28;20042;-61
2023/04/30 05:15:16;;;;;;;11.57;8.07;;;;;;;8.39;100.00;102252.03;5035151;28;20048;-61
2023/04/30 05:17:44;;;;;;;12.07;8.43;;;;;;;8.47;100.00;102254.53;5033319;28;20069;-61
2023/04/30 05:20:12;;;;;;;11.70;8.07;;;;;;;8.57;100.00;102253.22;5034677;28;20056;-62
2023/04/30 05:22:40;;;;;;;13.07;8.02;;;;;;;8.64;100.00;102260.28;5035111;28;20137;-63
2023/04/30 05:25:08;;;;;;;11.35;8.02;;;;;;;8.70;100.00;102264.00;5014617;28;20041;-64
2023/04/30 05:27:36;;;;;;;13.27;8.50;;;;;;;8.71;100.00;102257.53;5027885;28;20041;-62
2023/04/30 05:30:04;;;;;;;11.88;8.07;;;;;;;8.71;100.00;102257.53;5055046;28;20084;-61
2023/04/30 05:32:31;;;;;;;14.57;9.15;;;;;;;8.71;100.00;102255.63;5054281;28;20052;-60
2023/04/30 05:34:59;;;;;;;14.93;8.45;;;;;;;8.65;100.00;102256.50;5045490;28;20056;-61
2023/04/30 05:37:27;;;;;;;14.10;9.40;;;;;;;8.64;100.00;102259.47;5035274;28;20046;-60
2023/04/30 05:39:55;;;;;;;11.18;7.97;;;;;;;8.61;100.00;102251.72;5035817;28;20069;-63
2023/04/30 05:42:23;;;;;;;11.63;8.00;;;;;;;8.58;100.00;102244.03;5033823;28;20073;-66
2023/04/30 05:44:51;;;;;;;14.07;8.32;;;;;;;8.54;100.00;102249.06;5021399;28;20102;-60
2023/04/30 05:47:19;;;;;;;11.02;7.88;;;;;;;8.56;100.00;102249.66;5046990;28;20095;-60
2023/04/30 05:49:46;;;;;;;12.07;8.05;;;;;;;8.61;100.00;102255.28;5019367;28;20045;-61
2023/04/30 05:52:16;;;;;;;11.90;7.93;;;;;;;8.59;100.00;102246.53;5033103;28;20052;-61
2023/04/30 05:54:44;;;;;;;11.55;7.95;;;;;;;8.64;100.00;102254.03;5033034;28;20735;-63
2023/04/30 05:57:13;;;;;;;11.65;7.45;;;;;;;8.67;100.00;102254.41;5033668;28;20045;-61
2023/04/30 05:59:41;;;;;;;13.25;8.82;;;;;;;8.70;100.00;102243.06;5033913;28;20118;-62
2023/04/30 06:02:09;;;;;;;13.23;9.50;;;;;;;8.74;100.00;102248.91;5033250;28;20057;-63
2023/04/30 06:04:37;;;;;;;11.48;8.38;;;;;;;8.74;100.00;102241.59;5037531;28;20034;-60
2023/04/30 06:07:04;;;;;;;13.50;8.75;;;;;;;8.76;100.00;102251.44;5033520;28;20071;-61
2023/04/30 06:09:32;;;;;;;14.25;8.00;;;;;;;8.77;100.00;102243.03;5032612;28;20095;-60
2023/04/30 06:12:01;;;;;;;14.27;8.20;;;;;;;8.80;100.00;102242.59;5034656;28;20049;-62
2023/04/30 06:14:29;;;;;;;10.85;7.20;;;;;;;8.86;100.00;102247.16;5034156;28;20099;-63
2023/04/30 06:16:56;;;;;;;12.00;7.63;;;;;;;8.91;100.00;102239.16;5037808;28;20476;-61
2023/04/30 06:19:24;;;;;;;11.75;7.03;;;;;;;8.94;100.00;102244.16;5034137;28;20087;-64
2023/04/30 06:21:52;;;;;;;10.80;6.38;;;;;;;9.02;100.00;102250.34;5033089;28;20136;-62
2023/04/30 06:24:20;;;;;;;12.30;7.63;;;;;;;9.05;100.00;102242.59;5031885;28;20103;-61
2023/04/30 06:26:47;;;;;;;11.43;6.70;;;;;;;9.07;100.00;102242.41;5033503;28;20052;-60
2023/04/30 06:29:15;;;;;;;12.40;7.68;;;;;;;9.06;100.00;102246.16;5032716;28;20438;-60
2023/04/30 06:31:42;;;;;;;16.52;7.25;;;;;;;9.08;100.00;102244.03;5053243;28;20045;-61
2023/04/30 06:34:10;;;;;;;11.18;6.82;;;;;;;9.11;100.00;102249.84;5034237;28;20490;-61
2023/04/30 06:36:38;;;;;;;11.73;7.03;;;;;;;9.07;100.00;102250.56;5038026;28;20051;-61
2023/04/30 06:39:06;;;;;;;12.38;6.75;;;;;;;9.07;100.00;102242.41;5044215;28;20054;-61
2023/04/30 06:41:33;;;;;;;11.25;6.28;;;;;;;9.10;100.00;102237.31;5049570;28;20053;-61
2023/04/30 06:44:09;;;;;;;12.35;6.70;;;;;;;9.15;100.00;102250.25;5027803;28;20431;-63
2023/04/30 06:46:36;;;;;;;11.20;5.68;;;;;;;9.23;100.00;102249.97;5016115;28;20054;-62
2023/04/30 06:49:04;;;;;;;11.10;6.53;;;;;;;9.28;100.00;102252.84;5034008;28;20049;-63
2023/04/30 06:51:32;;;;;;;12.32;7.15;;;;;;;9.32;100.00;102256.78;5016559;28;20049;-63
2023/04/30 06:54:00;;;;;;;12.52;7.20;;;;;;;9.35;100.00;102258.22;5032592;28;20045;-61
2023/04/30 06:56:28;;;;;;;13.40;6.78;;;;;;;9.36;100.00;102252.56;5033340;28;20042;-61
2023/04/30 06:58:55;;;;;;;11.85;6.28;;;;;;;9.39;100.00;102262.97;5033752;28;20412;-61
2023/04/30 07:01:23;;;;;;;12.18;7.07;;;;;;;9.44;100.00;102258.75;5032717;28;20124;-62
2023/04/30 07:03:53;;;;;;;12.00;6.88;;;;;;;9.47;100.00;102247.44;5033797;28;20041;-62
2023/04/30 07:06:21;;;;;;;12.32;6.32;;;;;;;9.51;100.00;102262.25;5054240;28;20041;-62
2023/04/30 07:08:50;;;;;;;12.45;7.40;;;;;;;9.55;100.00;102247.97;5053389;28;20091;-62
2023/04/30 07:11:18;;;;;;;11.50;6.80;;;;;;;9.59;100.00;102246.44;5054300;28;20110;-64
2023/04/30 07:13:45;;;;;;;15.40;7.82;;;;;;;9.63;100.00;102252.28;5051960;28;20065;-62
2023/04/30 07:16:15;;;;;;;13.57;7.90;;;;;;;9.65;100.00;102258.34;5050353;28;20041;-62
2023/04/30 07:18:43;;;;;;;15.70;8.93;;;;;;;9.65;100.00;102250.16;5059903;28;20053;-62
2023/04/30 07:21:11;;;;;;;14.25;8.60;;;;;;;9.65;100.00;102252.88;5044294;28;20057;-61
2023/04/30 07:23:38;;;;;;;15.40;9.25;;;;;;;9.65;100.00;102244.72;5044339;28;20057;-63
2023/04/30 07:26:06;;;;;;;13.68;8.82;;;;;;;9.68;100.00;102246.16;5066364;28;20466;-63
2023/04/30 07:28:34;;;;;;;13.93;9.07;;;;;;;9.72;100.00;102250.91;5055089;28;20546;-61
2023/04/30 07:31:02;;;;;;;13.77;9.30;;;;;;;9.80;100.00;102249.78;5056560;28;20041;-60
2023/04/30 07:33:30;;;;;;;15.00;9.57;;;;;;;9.85;100.00;102255.38;5050138;28;20524;-62
2023/04/30 07:35:57;;;;;;;13.05;8.85;;;;;;;9.88;100.00;102251.34;5033675;28;20132;-61
2023/04/30 07:38:25;;;;;;;15.18;9.10;;;;;;;9.89;100.00;102247.59;5033855;28;20058;-61
2023/04/30 07:40:53;;;;;;;15.63;9.63;;;;;;;9.91;100.00;102253.63;5032580;28;20474;-61
2023/04/30 07:43:21;;;;;;;16.33;9.48;;;;;;;9.94;100.00;102239.56;5031926;28;20080;-62
2023/04/30 07:45:52;;;;;;;14.45;9.52;;;;;;;9.97;100.00;102248.09;5033622;28;20381;-63
2023/04/30 07:48:20;;;;;;;14.82;10.07;;;;;;;10.00;100.00;102242.19;5033962;28;20056;-61
2023/04/30 07:50:50;;;;;;;15.15;10.27;;;;;;;10.04;100.00;102248.03;5032529;28;20046;-62
2023/04/30 07:53:19;;;;;;;13.80;8.60;;;;;;;10.07;100.00;102252.16;5032968;28;20045;-62
2023/04/30 07:55:47;;;;;;;14.48;9.70;;;;;;;10.10;100.00;102251.69;5033480;28;20049;-61
2023/04/30 07:58:15;;;;;;;16.85;10.60;;;;;;;10.13;100.00;102254.81;5048978;28;20048;-61
2023/04/30 08:00:42;;;;;;;18.40;10.45;;;;;;;10.16;100.00;102253.53;5033636;28;20053;-63
2023/04/30 08:03:11;;;;;;;15.02;9.25;;;;;;;10.20;100.00;102247.38;5033373;28;20093;-62
2023/04/30 08:05:40;;;;;;;15.00;10.27;;;;;;;10.23;100.00;102252.38;5032326;28;20076;-61
2023/04/30 08:08:07;;;;;;;14.27;10.43;;;;;;;10.27;100.00;102251.91;5033766;28;20119;-61
2023/04/30 08:10:36;;;;;;;16.17;10.43;;;;;;;10.30;100.00;102254.22;5032906;28;20136;-62
2023/04/30 08:13:05;;;;;;;15.40;10.38;;;;;;;10.33;100.00;102251.84;5033551;28;20425;-61
2023/04/30 08:15:34;;;;;;;14.88;9.82;;;;;;;10.37;100.00;102255.78;5033683;28;20042;-61
2023/04/30 08:18:04;;;;;;;14.48;10.07;;;;;;;10.43;100.00;102259.47;5032084;28;20049;-60
2023/04/30 08:20:32;;;;;;;15.68;10.45;;;;;;;10.45;100.00;102258.16;5031978;28;20076;-63
2023/04/30 08:23:01;;;;;;;17.08;10.02;;;;;;;10.52;100.00;102265.41;5031670;28;20049;-61
2023/04/30 08:25:30;;;;;;;18.90;10.75;;;;;;;10.61;100.00;102267.59;5033123;28;20551;-61
2023/04/30 08:27:58;;;;;;;15.05;9.90;;;;;;;10.71;100.00;102274.38;5032903;28;20124;-60
2023/04/30 08:30:26;;;;;;;16.88;11.18;;;;;;;10.75;100.00;102265.50;5031899;28;20057;-61
2023/04/30 08:32:54;;;;;;;16.60;10.27;;;;;;;10.76;100.00;102267.16;5014565;28;20072;-61
2023/04/30 08:35:24;;;;;;;13.43;9.57;;;;;;;10.81;100.00;102263.72;5031851;28;20077;-61
2023/04/30 08:37:52;;;;;;;15.30;9.75;;;;;;;10.86;100.00;102266.56;5033156;28;20076;-63
2023/04/30 08:40:20;;;;;;;11.95;8.40;;;;;;;10.90;100.00;102261.50;5031866;28;20541;-62
2023/04/30 08:43:04;;;;;;;12.35;8.13;;;;;;;10.95;100.00;102267.06;5031442;28;20057;-62
2023/04/30 08:45:33;;;;;;;14.63;8.20;;;;;;;10.97;100.00;102265.75;5031508;28;20048;-62
2023/04/30 08:48:01;;;;;;;10.95;7.28;;;;;;;11.01;100.00;102255.19;5036045;28;20045;-61
2023/04/30 08:50:30;;;;;;;16.15;8.32;;;;;;;11.09;100.00;102254.88;5035280;28;20077;-60
2023/04/30 08:52:58;;;;;;;13.10;8.05;;;;;;;11.09;100.00;102250.25;5034606;28;20041;-62
2023/04/30 08:55:27;;;;;;;11.50;7.43;;;;;;;11.11;100.00;102251.88;5036631;28;20478;-61
2023/04/30 08:57:54;;;;;;;13.45;7.95;;;;;;;11.14;100.00;102251.44;5018741;28;20192;-61
2023/04/30 09:00:22;;;;;;;11.27;7.15;;;;;;;11.16;100.00;102252.00;5034892;28;20050;-61
2023/04/30 09:02:50;;;;;;;11.48;7.28;;;;;;;11.25;100.00;102259.59;5034933;28;20527;-63
2023/04/30 09:05:18;;;;;;;11.27;7.82;;;;;;;11.30;100.00;102250.69;5034347;28;20050;-61
2023/04/30 09:07:46;;;;;;;13.90;7.38;;;;;;;11.33;100.00;102250.25;5014487;28;20121;-61
2023/04/30 09:10:18;;;;;;;13.68;8.50;;;;;;;11.38;100.00;102252.25;5016157;28;20053;-61
2023/04/30 09:12:59;;;;;;;12.73;8.13;;;;;;;11.44;100.00;102251.28;5024059;28;20041;-61
2023/04/30 09:15:27;;;;;;;11.20;7.63;;;;;;;11.49;100.00;102257.69;5050900;28;20083;-68
2023/04/30 09:18:10;;;;;;;11.38;8.15;;;;;;;11.51;100.00;102246.53;5035602;28;20132;-58
2023/04/30 09:20:52;;;;;;;15.60;9.43;;;;;;;11.56;98.86;102237.63;5036034;28;20095;-61
2023/04/30 09:23:20;;;;;;;13.18;8.50;;;;;;;11.71;100.00;102246.16;5067358;28;20045;-62
2023/04/30 09:25:48;;;;;;;14.00;7.25;;;;;;;11.80;98.93;102238.41;5035672;28;20128;-61
2023/04/30 09:28:15;;;;;;;14.30;7.80;;;;;;;11.76;98.20;102243.53;5035295;28;20065;-63
2023/04/30 09:30:43;;;;;;;12.35;8.02;;;;;;;11.75;99.18;102236.41;5035669;28;20088;-63
2023/04/30 09:33:11;;;;;;;14.30;7.90;;;;;;;11.81;96.83;102235.47;5034849;28;20543;-61
2023/04/30 09:35:42;;;;;;;14.07;8.07;;;;;;;11.87;97.01;102234.50;5035920;28;20440;-62
2023/04/30 09:38:27;;;;;;;12.50;7.72;;;;;;;11.90;96.67;102231.28;5017982;28;20048;-62
2023/04/30 09:40:56;;;;;;;11.77;7.82;;;;;;;11.88;96.96;102230.72;5035601;28;20049;-62
2023/04/30 09:43:24;;;;;;;13.32;8.45;;;;;;;11.89;97.68;102231.53;5035196;28;20080;-61
2023/04/30 09:45:52;;;;;;;12.13;7.72;;;;;;;11.94;97.51;102235.19;5017787;28;20049;-60
2023/04/30 09:48:24;;;;;;;13.00;7.28;;;;;;;12.04;95.90;102228.28;5034996;28;20478;-62
2023/04/30 09:50:52;;;;;;;10.63;6.55;;;;;;;12.13;92.96;102229.56;5034020;28;20490;-63
2023/04/30 09:53:20;;;;;;;8.63;5.95;;;;;;;12.16;90.84;102220.88;5034588;28;20099;-61
2023/04/30 09:55:50;;;;;;;10.65;5.72;;;;;;;12.16;90.37;102220.88;5033522;28;20048;-62
2023/04/30 09:58:18;;;;;;;10.48;6.13;;;;;;;12.19;92.04;102214.91;5016483;28;20054;-63
2023/04/30 10:00:48;;;;;;;11.38;6.05;;;;;;;12.24;91.55;102217.75;5034014;28;20053;-61
2023/04/30 10:03:16;;;;;;;8.88;5.50;;;;;;;12.25;90.74;102211.22;5033798;28;20042;-60
2023/04/30 10:05:46;;;;;;;12.70;7.78;;;;;;;12.29;91.94;102215.13;5032829;28;20049;-60
2023/04/30 10:08:21;;;;;;;11.43;6.20;;;;;;;12.34;89.78;102209.75;5035185;28;20042;-61
2023/04/30 10:10:51;;;;;;;9.32;5.60;;;;;;;12.46;89.42;102214.28;5050373;28;20083;-61
2023/04/30 10:13:20;;;;;;;8.98;5.88;;;;;;;12.55;87.63;102215.56;5033822;28;20087;-62
2023/04/30 10:15:50;;;;;;;9.50;5.15;;;;;;;12.53;88.31;102207.63;5033711;28;20083;-62
2023/04/30 10:18:24;;;;;;;11.88;6.90;;;;;;;12.56;88.74;102207.09;5033402;28;20477;-61
2023/04/30 10:20:53;;;;;;;10.38;5.97;;;;;;;12.62;89.58;102199.81;5033585;28;20052;-63
2023/04/30 10:23:21;;;;;;;13.48;6.82;;;;;;;12.78;90.43;102207.19;5033532;28;20128;-63
2023/04/30 10:25:50;;;;;;;8.50;5.85;;;;;;;12.85;88.61;102198.84;5034427;28;20050;-64
2023/04/30 10:28:18;;;;;;;12.27;7.03;;;;;;;12.91;87.68;102205.19;5034466;28;20124;-61
2023/04/30 10:30:46;;;;;;;8.85;5.40;;;;;;;12.87;86.00;102198.56;5017628;28;20124;-62
2023/04/30 10:33:18;;;;;;;8.38;5.28;;;;;;;12.82;87.67;102199.34;5022352;28;20057;-63
2023/04/30 10:35:58;;;;;;;10.48;5.40;;;;;;;12.79;87.85;102192.47;5032736;28;20048;-63
2023/04/30 10:38:30;;;;;;;11.05;6.10;;;;;;;12.85;88.77;102192.53;5052227;28;20513;-63
2023/04/30 10:41:02;;;;;;;11.43;5.72;;;;;;;12.92;87.91;102190.47;5053188;28;20397;-64
2023/04/30 10:43:31;;;;;;;9.48;5.60;;;;;;;13.00;89.61;102181.81;5052208;28;20424;-64
2023/04/30 10:45:59;;;;;;;10.35;5.47;;;;;;;13.06;88.75;102183.56;5033471;28;20045;-64
2023/04/30 10:48:30;;;;;;;10.63;6.53;;;;;;;13.13;87.43;102175.16;5034674;28;20045;-63
2023/04/30 10:50:58;;;;;;;10.07;6.10;;;;;;;13.18;85.72;102180.69;5034124;28;20049;-64
2023/04/30 10:53:30;;;;;;;10.23;6.10;;;;;;;13.17;86.31;102171.66;5044854;28;20098;-63
2023/04/30 10:56:05;;;;;;;12.85;6.40;;;;;;;13.23;86.27;102169.84;5050902;28;20061;-63
2023/04/30 10:58:35;;;;;;;9.70;5.80;;;;;;;13.16;86.53;102167.28;4329916;28;10000775;-65
2023/04/30 11:01:12;;;;;;;9.90;6.60;;;;;;;13.22;86.33;102169.00;5029025;28;20088;-65
2023/04/30 11:03:56;;;;;;;9.75;6.28;;;;;;;13.35;88.02;102167.03;5030405;28;20424;-64
2023/04/30 11:06:25;;;;;;;10.85;6.50;;;;;;;13.42;86.75;102163.00;5014081;28;20049;-63
2023/04/30 11:09:03;;;;;;;11.43;7.05;;;;;;;13.37;87.94;102159.38;5030487;28;20095;-66
2023/04/30 11:11:33;;;;;;;9.45;6.65;;;;;;;13.47;85.89;102154.03;5057277;28;20124;-67
2023/04/30 11:14:01;;;;;;;10.40;6.20;;;;;;;13.53;83.16;102150.25;5045978;28;20061;-65
2023/04/30 11:16:38;;;;;;;9.25;5.90;;;;;;;13.58;85.14;102147.59;5034326;28;20559;-64
2023/04/30 11:19:12;;;;;;;11.45;7.50;;;;;;;13.71;86.00;102148.28;5031399;28;20049;-64
2023/04/30 11:22:01;;;;;;;15.07;7.50;;;;;;;13.73;84.46;102138.72;5052815;28;20099;-63
2023/04/30 11:24:48;;;;;;;9.57;6.60;;;;;;;13.77;84.05;102144.53;5044947;28;20050;-62
2023/04/30 11:27:21;;;;;;;10.00;5.82;;;;;;;13.72;83.60;102139.00;5045288;28;20049;-64